createdAt,value
2022-09-24T00:01:40.673Z,27.35
2022-09-24T00:04:12.761Z,29.17
2022-09-24T00:06:46.092Z,29.83
2022-09-24T00:09:22.073Z,29.27
2022-09-24T00:11:53.354Z,29.58
2022-09-24T00:14:20.960Z,28.75
2022-09-24T00:16:48.452Z,25.02
2022-09-24T00:19:16.030Z,28.58
2022-09-24T00:21:44.206Z,24.80
2022-09-24T00:24:35.759Z,24.92
2022-09-24T00:27:03.734Z,28.42
2022-09-24T00:29:32.935Z,25.52
2022-09-24T00:32:00.593Z,27.88
2022-09-24T00:34:28.217Z,27.80
2022-09-24T00:36:55.698Z,27.75
2022-09-24T00:39:23.152Z,27.65
2022-09-24T00:41:50.635Z,25.85
2022-09-24T00:44:46.254Z,24.08
2022-09-24T00:47:19.457Z,27.15
2022-09-24T00:49:50.118Z,29.15
2022-09-24T00:52:19.755Z,28.17
2022-09-24T00:54:48.020Z,28.95
2022-09-24T00:57:15.794Z,26.10
2022-09-24T00:59:45.047Z,26.20
2022-09-24T01:02:12.695Z,26.40
2022-09-24T01:04:40.319Z,28.67
2022-09-24T01:07:07.804Z,24.10
2022-09-24T01:09:35.684Z,28.80
2022-09-24T01:12:20.505Z,25.25
2022-09-24T01:15:08.246Z,30.70
2022-09-24T01:17:49.427Z,28.60
2022-09-24T01:20:58.561Z,29.13
2022-09-24T01:23:48.557Z,32.70
2022-09-24T01:26:21.475Z,31.05
2022-09-24T01:28:52.009Z,32.47
2022-09-24T01:31:30.972Z,30.00
2022-09-24T01:34:05.646Z,34.35
2022-09-24T01:36:36.899Z,30.42
2022-09-24T01:39:07.873Z,34.90
2022-09-24T01:41:37.328Z,35.22
2022-09-24T01:44:07.791Z,34.78
2022-09-24T01:46:39.707Z,37.22
2022-09-24T01:49:08.038Z,36.13
2022-09-24T01:51:48.208Z,39.17
2022-09-24T01:54:30.231Z,40.47
2022-09-24T01:57:03.749Z,40.38
2022-09-24T01:59:40.500Z,32.58
2022-09-24T02:02:23.325Z,34.58
2022-09-24T02:04:59.596Z,31.80
2022-09-24T02:07:43.774Z,34.20
2022-09-24T02:10:21.570Z,36.85
2022-09-24T02:12:59.425Z,34.75
2022-09-24T02:15:35.646Z,36.40
2022-09-24T02:18:10.202Z,34.13
2022-09-24T02:20:40.178Z,29.83
2022-09-24T02:23:09.179Z,32.08
2022-09-24T02:25:57.909Z,30.63
2022-09-24T02:28:25.959Z,32.42
2022-09-24T02:31:00.240Z,33.35
2022-09-24T02:33:47.407Z,30.45
2022-09-24T02:36:14.965Z,31.85
2022-09-24T02:38:43.114Z,33.28
2022-09-24T02:41:11.558Z,31.58
2022-09-24T02:43:41.003Z,32.28
2022-09-24T02:46:10.277Z,29.80
2022-09-24T02:48:38.546Z,33.55
2022-09-24T02:51:06.637Z,31.83
2022-09-24T02:53:34.338Z,32.85
2022-09-24T02:56:02.386Z,33.88
2022-09-24T02:58:31.092Z,37.05
2022-09-24T03:00:59.009Z,38.20
2022-09-24T03:03:27.479Z,36.15
2022-09-24T03:05:55.165Z,37.53
2022-09-24T03:08:24.244Z,40.72
2022-09-24T03:10:52.789Z,36.75
2022-09-24T03:13:20.484Z,37.90
2022-09-24T03:15:47.992Z,38.28
2022-09-24T03:18:16.064Z,32.55
2022-09-24T03:20:43.557Z,32.88
2022-09-24T03:23:11.047Z,39.58
2022-09-24T03:25:38.544Z,32.65
2022-09-24T03:28:06.051Z,34.80
2022-09-24T03:30:50.766Z,35.50
2022-09-24T03:33:18.273Z,35.35
2022-09-24T03:35:45.743Z,37.65
2022-09-24T03:38:13.198Z,36.17
2022-09-24T03:40:40.771Z,40.28
2022-09-24T03:43:08.391Z,37.72
2022-09-24T03:45:35.984Z,40.38
2022-09-24T03:48:03.440Z,35.25
2022-09-24T03:50:30.880Z,42.75
2022-09-24T03:52:58.377Z,44.63
2022-09-24T03:55:25.854Z,44.17
2022-09-24T03:57:53.390Z,46.80
2022-09-24T04:00:20.862Z,44.22
2022-09-24T04:02:48.407Z,47.55
2022-09-24T04:05:16.129Z,38.78
2022-09-24T04:07:45.015Z,42.13
2022-09-24T04:10:13.690Z,43.60
2022-09-24T04:12:41.222Z,47.30
2022-09-24T04:15:09.062Z,41.05
2022-09-24T04:17:36.627Z,41.40
2022-09-24T04:20:04.285Z,46.72
2022-09-24T04:22:31.878Z,42.03
2022-09-24T04:24:59.395Z,45.17
2022-09-24T04:27:26.916Z,46.35
2022-09-24T04:29:55.194Z,43.78
2022-09-24T04:32:22.812Z,45.45
2022-09-24T04:34:50.295Z,41.10
2022-09-24T04:37:17.762Z,45.17
2022-09-24T04:39:45.272Z,46.78
2022-09-24T04:42:18.067Z,44.75
2022-09-24T04:44:47.766Z,42.67
2022-09-24T04:47:16.067Z,45.65
2022-09-24T04:49:45.841Z,42.05
2022-09-24T04:52:14.941Z,39.50
2022-09-24T04:54:47.327Z,45.55
2022-09-24T04:57:16.026Z,46.92
2022-09-24T04:59:44.417Z,42.30
2022-09-24T05:02:12.338Z,40.28
2022-09-24T05:04:39.883Z,40.05
2022-09-24T05:07:07.410Z,39.47
2022-09-24T05:09:34.962Z,39.10
2022-09-24T05:12:03.419Z,37.80
2022-09-24T05:14:31.234Z,37.17
2022-09-24T05:16:58.878Z,38.45
2022-09-24T05:19:26.440Z,42.72
2022-09-24T05:21:53.894Z,39.70
2022-09-24T05:24:21.347Z,37.95
2022-09-24T05:27:06.378Z,38.78
2022-09-24T05:29:33.850Z,36.83
2022-09-24T05:32:05.600Z,37.53
2022-09-24T05:34:33.833Z,41.65
2022-09-24T05:37:02.275Z,37.85
2022-09-24T05:39:33.896Z,31.27
2022-09-24T05:42:04.189Z,42.55
2022-09-24T05:44:32.861Z,35.90
2022-09-24T05:47:00.742Z,37.38
2022-09-24T05:49:28.309Z,38.72
2022-09-24T05:51:55.793Z,36.67
2022-09-24T05:54:23.254Z,36.65
2022-09-24T05:56:50.888Z,34.75
2022-09-24T05:59:18.399Z,36.55
2022-09-24T06:01:45.974Z,33.35
2022-09-24T06:04:13.858Z,37.08
2022-09-24T06:06:41.345Z,38.53
2022-09-24T06:09:10.109Z,37.45
2022-09-24T06:11:40.771Z,40.05
2022-09-24T06:14:09.735Z,36.97
2022-09-24T06:16:37.458Z,40.72
2022-09-24T06:19:05.356Z,46.70
2022-09-24T06:21:33.053Z,41.40
2022-09-24T06:24:00.527Z,36.72
2022-09-24T06:26:28.994Z,41.03
2022-09-24T06:29:00.771Z,39.83
2022-09-24T06:31:31.588Z,35.90
2022-09-24T06:33:59.264Z,36.28
2022-09-24T06:36:27.032Z,36.35
2022-09-24T06:38:54.625Z,39.83
2022-09-24T06:41:22.524Z,34.45
2022-09-24T06:43:50.166Z,38.03
2022-09-24T06:46:18.220Z,34.63
2022-09-24T06:48:45.881Z,32.75
2022-09-24T06:51:13.520Z,37.63
2022-09-24T06:53:41.157Z,37.20
2022-09-24T06:56:08.767Z,37.90
2022-09-24T06:58:36.428Z,36.35
2022-09-24T07:01:04.759Z,39.53
2022-09-24T07:03:34.414Z,34.92
2022-09-24T07:06:04.823Z,41.75
2022-09-24T07:08:32.917Z,32.30
2022-09-24T07:11:01.633Z,33.45
2022-09-24T07:13:29.303Z,34.65
2022-09-24T07:15:56.947Z,35.50
2022-09-24T07:18:24.615Z,32.70
2022-09-24T07:20:54.192Z,33.03
2022-09-24T07:23:22.670Z,32.17
2022-09-24T07:25:53.906Z,31.52
2022-09-24T07:28:21.511Z,30.52
2022-09-24T07:30:57.490Z,36.05
2022-09-24T07:33:25.241Z,34.67
2022-09-24T07:35:52.879Z,30.70
2022-09-24T07:38:20.638Z,29.75
2022-09-24T07:40:48.305Z,31.70
2022-09-24T07:43:15.996Z,39.17
2022-09-24T07:45:43.902Z,34.28
2022-09-24T07:48:12.863Z,33.25
2022-09-24T07:50:41.952Z,28.90
2022-09-24T07:53:13.653Z,27.65
2022-09-24T07:55:42.031Z,28.35
2022-09-24T07:58:13.550Z,29.98
2022-09-24T08:00:41.708Z,28.23
2022-09-24T08:03:09.898Z,26.13
2022-09-24T08:05:37.893Z,30.88
2022-09-24T08:08:06.507Z,23.30
2022-09-24T08:10:34.193Z,20.25
2022-09-24T08:13:05.030Z,18.73
2022-09-24T08:15:32.692Z,17.95
2022-09-24T08:18:04.514Z,18.90
2022-09-24T08:20:33.736Z,14.77
2022-09-24T08:23:03.299Z,17.42
2022-09-24T08:25:31.273Z,13.70
2022-09-24T08:28:04.523Z,16.38
2022-09-24T08:30:33.425Z,14.18
2022-09-24T08:33:01.271Z,15.02
2022-09-24T08:35:28.878Z,15.65
2022-09-24T08:37:57.144Z,15.15
2022-09-24T08:40:27.773Z,15.52
2022-09-24T08:43:42.033Z,14.88
2022-09-24T08:46:40.325Z,14.77
2022-09-24T08:49:11.966Z,15.90
2022-09-24T08:51:47.528Z,14.70
2022-09-24T08:54:16.369Z,13.85
2022-09-24T08:56:47.379Z,15.23
2022-09-24T08:59:30.456Z,16.85
2022-09-24T09:02:04.191Z,14.60
2022-09-24T09:04:59.959Z,16.83
2022-09-24T09:07:38.410Z,13.23
2022-09-24T09:10:10.799Z,13.40
2022-09-24T09:12:44.112Z,14.80
2022-09-24T09:15:20.729Z,15.30
2022-09-24T09:17:54.040Z,13.32
2022-09-24T09:20:31.151Z,13.38
2022-09-24T09:23:04.747Z,12.43
2022-09-24T09:25:39.031Z,11.60
2022-09-24T09:28:15.137Z,9.05
2022-09-24T09:31:01.110Z,8.40
2022-09-24T09:33:40.962Z,7.50
2022-09-24T09:36:39.409Z,7.47
2022-09-24T09:39:28.419Z,7.78
2022-09-24T09:42:10.492Z,7.47
2022-09-24T09:44:42.516Z,7.95
2022-09-24T09:47:44.693Z,9.15
2022-09-24T09:50:20.746Z,6.25
2022-09-24T09:52:48.448Z,7.22
2022-09-24T09:55:28.508Z,5.95
2022-09-24T09:58:19.552Z,6.57
2022-09-24T10:00:48.412Z,4.65
2022-09-24T10:03:46.305Z,4.95
2022-09-24T10:06:31.668Z,8.10
2022-09-24T10:09:08.624Z,4.40
2022-09-24T10:11:36.317Z,3.30
2022-09-24T10:14:10.788Z,3.53
2022-09-24T10:16:49.114Z,5.40
2022-09-24T10:19:22.716Z,4.57
2022-09-24T10:21:51.851Z,6.97
2022-09-24T10:24:27.697Z,4.80
2022-09-24T10:26:56.711Z,6.63
2022-09-24T10:29:45.784Z,5.10
2022-09-24T10:32:19.846Z,6.47
2022-09-24T10:35:06.771Z,3.13
2022-09-24T10:37:36.100Z,3.55
2022-09-24T10:40:15.490Z,4.30
2022-09-24T10:42:43.344Z,3.65
2022-09-24T10:45:15.016Z,3.25
2022-09-24T10:47:59.042Z,3.50
2022-09-24T10:50:54.316Z,3.70
2022-09-24T10:53:53.293Z,6.40
2022-09-24T10:57:01.335Z,5.03
2022-09-24T10:59:51.261Z,5.90
2022-09-24T11:02:56.664Z,9.50
2022-09-24T11:05:26.058Z,7.68
2022-09-24T11:08:05.267Z,9.25
2022-09-24T11:10:54.112Z,8.48
2022-09-24T11:13:52.031Z,14.75
2022-09-24T11:16:19.842Z,10.60
2022-09-24T11:19:24.295Z,11.18
2022-09-24T11:22:03.704Z,5.53
2022-09-24T11:25:09.437Z,5.22
2022-09-24T11:28:01.345Z,10.65
2022-09-24T11:30:40.727Z,8.32
2022-09-24T11:33:11.211Z,8.43
2022-09-24T11:36:06.413Z,6.60
2022-09-24T11:38:59.927Z,11.13
2022-09-24T11:41:37.027Z,9.15
2022-09-24T11:44:40.046Z,8.70
2022-09-24T11:47:26.224Z,9.70
2022-09-24T11:50:14.293Z,9.05
2022-09-24T11:52:55.468Z,11.20
2022-09-24T11:55:25.857Z,9.50
2022-09-24T11:58:07.552Z,9.55
2022-09-24T12:00:41.699Z,9.43
2022-09-24T12:03:26.417Z,14.57
2022-09-24T12:06:03.036Z,15.40
2022-09-24T12:08:41.807Z,12.77
2022-09-24T12:11:20.858Z,7.68
2022-09-24T12:13:55.637Z,8.55
2022-09-24T12:16:28.371Z,9.82
2022-09-24T12:19:10.253Z,14.77
2022-09-24T12:21:42.143Z,8.63
2022-09-24T12:24:23.203Z,7.70
2022-09-24T12:26:57.712Z,14.95
2022-09-24T12:29:55.062Z,11.88
2022-09-24T12:32:58.076Z,10.52
2022-09-24T12:35:55.131Z,12.95
2022-09-24T12:38:57.517Z,12.32
2022-09-24T12:41:48.427Z,11.48
2022-09-24T12:44:23.850Z,6.38
2022-09-24T12:46:57.381Z,9.10
2022-09-24T12:49:27.659Z,8.05
2022-09-24T12:51:57.672Z,13.68
2022-09-24T12:54:28.752Z,11.60
2022-09-24T12:57:26.469Z,10.70
2022-09-24T13:00:01.940Z,7.53
2022-09-24T13:02:33.220Z,16.95
2022-09-24T13:05:03.857Z,13.68
2022-09-24T13:07:41.152Z,7.30
2022-09-24T13:10:30.711Z,9.63
2022-09-24T13:13:00.875Z,10.13
2022-09-24T13:15:40.031Z,7.65
2022-09-24T13:18:24.294Z,15.30
2022-09-24T13:21:09.357Z,6.15
2022-09-24T13:23:37.076Z,14.60
2022-09-24T13:26:10.671Z,17.75
2022-09-24T13:28:48.892Z,6.22
2022-09-24T13:31:22.734Z,8.63
2022-09-24T13:34:10.772Z,9.82
2022-09-24T13:36:47.001Z,8.95
2022-09-24T13:39:21.279Z,7.40
2022-09-24T13:42:07.527Z,7.53
2022-09-24T13:44:44.954Z,8.70
2022-09-24T13:47:28.641Z,8.43
2022-09-24T13:50:23.742Z,10.05
2022-09-24T13:53:29.777Z,11.93
2022-09-24T13:56:01.411Z,9.05
2022-09-24T13:58:41.168Z,11.48
2022-09-24T14:01:21.525Z,10.38
2022-09-24T14:04:05.645Z,9.07
2022-09-24T14:06:40.080Z,7.68
2022-09-24T14:09:18.218Z,6.70
2022-09-24T14:11:53.591Z,13.00
2022-09-24T14:14:24.698Z,7.00
2022-09-24T14:16:54.965Z,15.70
2022-09-24T14:19:24.246Z,5.65
2022-09-24T14:21:57.984Z,5.00
2022-09-24T14:24:31.007Z,9.15
2022-09-24T14:27:08.271Z,15.55
2022-09-24T14:29:48.238Z,9.23
2022-09-24T14:32:32.366Z,13.32
2022-09-24T14:35:06.431Z,9.43
2022-09-24T14:37:37.162Z,11.40
2022-09-24T14:40:12.965Z,8.27
2022-09-24T14:42:56.560Z,10.55
2022-09-24T14:45:34.419Z,15.70
2022-09-24T14:48:07.500Z,9.55
2022-09-24T14:50:41.417Z,5.22
2022-09-24T14:53:28.063Z,3.72
2022-09-24T14:55:55.790Z,12.23
2022-09-24T14:58:25.937Z,8.52
2022-09-24T15:00:59.265Z,10.88
2022-09-24T15:03:33.793Z,5.78
2022-09-24T15:06:17.730Z,5.80
2022-09-24T15:08:52.841Z,8.30
2022-09-24T15:11:21.288Z,6.70
2022-09-24T15:13:59.466Z,9.40
2022-09-24T15:16:31.888Z,7.70
2022-09-24T15:19:16.868Z,5.43
2022-09-24T15:21:45.517Z,10.15
2022-09-24T15:24:13.153Z,6.78
2022-09-24T15:26:43.435Z,8.65
2022-09-24T15:29:24.342Z,9.50
2022-09-24T15:31:53.413Z,4.63
2022-09-24T15:34:21.328Z,5.65
2022-09-24T15:36:55.725Z,9.43
2022-09-24T15:39:23.665Z,8.10
2022-09-24T15:41:51.300Z,8.43
2022-09-24T15:44:26.242Z,10.43
2022-09-24T15:46:57.598Z,5.85
2022-09-24T15:49:26.325Z,6.30
2022-09-24T15:52:02.991Z,9.55
2022-09-24T15:54:30.669Z,7.43
2022-09-24T15:56:58.854Z,4.38
2022-09-24T15:59:26.494Z,2.72
2022-09-24T16:01:58.668Z,8.35
2022-09-24T16:06:53.941Z,5.75
2022-09-24T16:09:21.572Z,6.30
2022-09-24T16:11:49.232Z,8.90
2022-09-24T16:14:16.886Z,7.50
2022-09-24T16:16:44.534Z,8.50
2022-09-24T16:19:12.523Z,6.10
2022-09-24T16:21:40.346Z,5.50
2022-09-24T16:24:08.021Z,6.68
2022-09-24T16:26:35.716Z,6.78
2022-09-24T16:29:04.953Z,4.90
2022-09-24T16:31:32.761Z,5.72
2022-09-24T16:34:01.157Z,10.27
2022-09-24T16:36:28.912Z,13.85
2022-09-24T16:38:58.148Z,9.27
2022-09-24T16:41:25.879Z,3.42
2022-09-24T16:43:58.410Z,11.85
2022-09-24T16:46:26.112Z,7.00
2022-09-24T16:48:53.818Z,7.97
2022-09-24T16:51:22.182Z,3.10
2022-09-24T16:53:51.383Z,5.30
2022-09-24T16:56:19.179Z,7.60
2022-09-24T16:58:47.983Z,5.25
2022-09-24T17:01:18.343Z,7.32
2022-09-24T17:03:51.119Z,5.50
2022-09-24T17:06:24.262Z,9.23
2022-09-24T17:09:09.718Z,13.15
2022-09-24T17:11:40.177Z,9.18
2022-09-24T17:14:11.547Z,7.57
2022-09-24T17:16:40.101Z,3.43
2022-09-24T17:19:08.329Z,5.13
2022-09-24T17:21:40.424Z,7.45
2022-09-24T17:24:08.466Z,3.85
2022-09-24T17:26:36.768Z,10.70
2022-09-24T17:29:04.986Z,6.15
2022-09-24T17:31:32.843Z,7.03
2022-09-24T17:34:02.964Z,7.78
2022-09-24T17:36:32.499Z,6.53
2022-09-24T17:39:01.049Z,5.60
2022-09-24T17:41:30.293Z,4.60
2022-09-24T17:43:59.693Z,4.80
2022-09-24T17:46:29.672Z,5.90
2022-09-24T17:48:59.934Z,3.88
2022-09-24T17:51:37.794Z,5.78
2022-09-24T17:54:12.363Z,6.15
2022-09-24T17:56:40.510Z,7.47
2022-09-24T17:59:09.824Z,6.82
2022-09-24T18:01:39.807Z,6.07
2022-09-24T18:04:11.615Z,4.15
2022-09-24T18:06:41.148Z,3.92
2022-09-24T18:09:10.097Z,7.78
2022-09-24T18:11:48.969Z,7.60
2022-09-24T18:14:23.686Z,7.43
2022-09-24T18:16:51.711Z,4.47
2022-09-24T18:19:19.763Z,5.18
2022-09-24T18:21:49.272Z,7.22
2022-09-24T18:24:17.490Z,4.70
2022-09-24T18:26:49.512Z,3.25
2022-09-24T18:29:19.371Z,4.30
2022-09-24T18:31:47.013Z,6.20
2022-09-24T18:34:16.339Z,8.30
2022-09-24T18:36:45.332Z,4.55
2022-09-24T18:39:21.711Z,12.43
2022-09-24T18:41:51.889Z,9.45
2022-09-24T18:44:19.613Z,3.00
2022-09-24T18:46:47.224Z,8.02
2022-09-24T18:49:14.809Z,9.07
2022-09-24T18:51:42.356Z,5.97
2022-09-24T18:54:13.954Z,8.65
2022-09-24T18:56:42.787Z,7.60
2022-09-24T18:59:19.344Z,8.77
2022-09-24T19:01:48.155Z,6.30
2022-09-24T19:04:16.009Z,5.72
2022-09-24T19:06:46.191Z,2.20
2022-09-24T19:09:17.333Z,5.07
2022-09-24T19:11:46.289Z,4.85
2022-09-24T19:14:17.989Z,5.00
2022-09-24T19:16:47.061Z,8.25
2022-09-24T19:19:14.676Z,7.70
2022-09-24T19:21:42.215Z,5.88
2022-09-24T19:24:10.834Z,7.95
2022-09-24T19:26:38.448Z,4.22
2022-09-24T19:29:06.656Z,3.83
2022-09-24T19:31:37.071Z,4.90
2022-09-24T19:34:06.660Z,5.70
2022-09-24T19:36:42.802Z,7.47
2022-09-24T19:39:12.517Z,4.03
2022-09-24T19:41:40.233Z,5.25
2022-09-24T19:44:09.022Z,8.02
2022-09-24T19:46:38.445Z,6.75
2022-09-24T19:49:06.997Z,5.90
2022-09-24T19:51:35.364Z,8.32
2022-09-24T19:54:08.071Z,5.13
2022-09-24T19:56:36.339Z,12.43
2022-09-24T19:59:04.834Z,10.27
2022-09-24T20:01:33.541Z,10.10
2022-09-24T20:04:05.028Z,8.05
2022-09-24T20:06:34.336Z,5.57
2022-09-24T20:09:01.999Z,4.10
2022-09-24T20:11:32.376Z,6.57
2022-09-24T20:14:00.222Z,11.07
2022-09-24T20:16:30.975Z,8.40
2022-09-24T20:18:58.478Z,11.38
2022-09-24T20:21:28.526Z,3.85
2022-09-24T20:23:58.566Z,8.95
2022-09-24T20:26:44.488Z,8.23
2022-09-24T20:29:13.716Z,10.43
2022-09-24T20:31:44.423Z,6.65
2022-09-24T20:34:11.959Z,4.78
2022-09-24T20:36:39.497Z,7.13
2022-09-24T20:39:06.988Z,7.05
2022-09-24T20:41:34.471Z,6.90
2022-09-24T20:44:02.147Z,8.65
2022-09-24T20:46:30.238Z,8.00
2022-09-24T20:48:59.867Z,8.00
2022-09-24T20:51:33.518Z,7.13
2022-09-24T20:54:01.896Z,12.50
2022-09-24T20:56:30.990Z,8.75
2022-09-24T20:59:00.884Z,6.53
2022-09-24T21:01:28.833Z,8.82
2022-09-24T21:03:58.221Z,7.13
2022-09-24T21:06:26.907Z,5.43
2022-09-24T21:08:54.918Z,8.73
2022-09-24T21:11:26.779Z,9.95
2022-09-24T21:13:57.297Z,11.68
2022-09-24T21:16:28.851Z,7.22
2022-09-24T21:18:56.834Z,7.00
2022-09-24T21:21:29.967Z,6.80
2022-09-24T21:23:59.814Z,7.28
2022-09-24T21:26:29.493Z,6.90
2022-09-24T21:29:01.548Z,7.68
2022-09-24T21:31:31.662Z,8.25
2022-09-24T21:33:59.929Z,8.63
2022-09-24T21:36:32.875Z,5.93
2022-09-24T21:39:02.763Z,4.03
2022-09-24T21:41:34.954Z,6.38
2022-09-24T21:44:03.119Z,7.07
2022-09-24T21:46:31.343Z,6.43
2022-09-24T21:49:00.237Z,8.38
2022-09-24T21:51:30.163Z,4.50
2022-09-24T21:54:06.716Z,8.18
2022-09-24T21:56:36.372Z,6.60
2022-09-24T21:59:26.661Z,4.47
2022-09-24T22:01:54.945Z,7.18
2022-09-24T22:04:24.304Z,6.82
2022-09-24T22:06:52.526Z,6.72
2022-09-24T22:09:21.525Z,12.18
2022-09-24T22:11:49.316Z,8.93
2022-09-24T22:14:16.823Z,8.60
2022-09-24T22:16:44.869Z,6.38
2022-09-24T22:19:12.439Z,8.77
2022-09-24T22:21:40.496Z,8.18
2022-09-24T22:24:08.154Z,7.70
2022-09-24T22:26:35.902Z,6.57
2022-09-24T22:29:04.113Z,9.75
2022-09-24T22:31:32.948Z,8.93
2022-09-24T22:34:18.031Z,5.60
2022-09-24T22:36:45.555Z,11.60
2022-09-24T22:39:13.122Z,7.75
2022-09-24T22:41:43.314Z,11.35
2022-09-24T22:44:12.584Z,12.18
2022-09-24T22:46:41.325Z,6.57
2022-09-24T22:49:10.299Z,10.02
2022-09-24T22:51:38.465Z,9.18
2022-09-24T22:54:06.832Z,8.25
2022-09-24T22:56:35.828Z,13.48
2022-09-24T22:59:04.386Z,7.97
2022-09-24T23:01:35.400Z,11.95
2022-09-24T23:04:03.797Z,7.07
2022-09-24T23:06:33.890Z,14.00
2022-09-24T23:09:02.231Z,8.02
2022-09-24T23:11:32.526Z,6.78
2022-09-24T23:14:22.020Z,8.10
2022-09-24T23:16:49.621Z,12.05
2022-09-24T23:19:19.913Z,9.55
2022-09-24T23:21:48.146Z,9.10
2022-09-24T23:24:18.108Z,11.98
2022-09-24T23:26:46.930Z,7.85
2022-09-24T23:29:15.308Z,6.65
2022-09-24T23:31:43.086Z,9.77
2022-09-24T23:34:13.520Z,6.90
2022-09-24T23:36:41.480Z,16.25
2022-09-24T23:39:09.069Z,8.55
2022-09-24T23:41:37.223Z,7.88
2022-09-24T23:44:04.873Z,10.23
2022-09-24T23:46:33.705Z,8.05
2022-09-24T23:49:01.551Z,8.93
2022-09-24T23:51:29.277Z,8.25
2022-09-24T23:53:56.834Z,9.65
2022-09-24T23:56:24.428Z,12.65
2022-09-24T23:58:52.084Z,15.55
